sensor_id;sensor_type;location;lat;lon;timestamp;temperature;humidity
73955;DHT22;62306;52.516;13.290;2023-08-21T00:01:46;23.30;99.90
73955;DHT22;62306;52.516;13.290;2023-08-21T00:04:13;23.30;99.90
73955;DHT22;62306;52.516;13.290;2023-08-21T00:06:40;23.30;99.90
73955;DHT22;62306;52.516;13.290;2023-08-21T00:09:06;23.30;99.90
73955;DHT22;62306;52.516;13.290;2023-08-21T00:11:34;23.10;99.90
73955;DHT22;62306;52.516;13.290;2023-08-21T00:14:00;23.20;99.90
73955;DHT22;62306;52.516;13.290;2023-08-21T00:16:29;23.10;99.90
73955;DHT22;62306;52.516;13.290;2023-08-21T00:18:56;23.10;99.90
73955;DHT22;62306;52.516;13.290;2023-08-21T00:21:23;23.10;99.90
73955;DHT22;62306;52.516;13.290;2023-08-21T00:23:50;23.00;99.90
73955;DHT22;62306;52.516;13.290;2023-08-21T00:26:17;23.00;99.90
73955;DHT22;62306;52.516;13.290;2023-08-21T00:28:44;23.10;99.90
73955;DHT22;62306;52.516;13.290;2023-08-21T00:31:10;23.10;99.90
73955;DHT22;62306;52.516;13.290;2023-08-21T00:33:39;23.10;99.90
73955;DHT22;62306;52.516;13.290;2023-08-21T00:36:06;23.00;99.90
73955;DHT22;62306;52.516;13.290;2023-08-21T00:38:33;23.00;99.90
73955;DHT22;62306;52.516;13.290;2023-08-21T00:40:59;22.90;99.90
73955;DHT22;62306;52.516;13.290;2023-08-21T00:43:26;22.90;99.90
73955;DHT22;62306;52.516;13.290;2023-08-21T00:45:53;22.80;99.90
73955;DHT22;62306;52.516;13.290;2023-08-21T00:48:20;22.80;99.90
73955;DHT22;62306;52.516;13.290;2023-08-21T00:50:49;22.90;99.90
73955;DHT22;62306;52.516;13.290;2023-08-21T00:53:16;22.80;99.90
73955;DHT22;62306;52.516;13.290;2023-08-21T00:55:43;22.70;99.90
73955;DHT22;62306;52.516;13.290;2023-08-21T00:58:10;22.80;99.90
73955;DHT22;62306;52.516;13.290;2023-08-21T01:00:38;22.80;99.90
73955;DHT22;62306;52.516;13.290;2023-08-21T01:03:05;22.80;99.90
73955;DHT22;62306;52.516;13.290;2023-08-21T01:05:32;22.70;99.90
73955;DHT22;62306;52.516;13.290;2023-08-21T01:08:04;22.70;99.90
73955;DHT22;62306;52.516;13.290;2023-08-21T01:10:47;22.80;99.90
73955;DHT22;62306;52.516;13.290;2023-08-21T01:13:27;22.70;99.90
73955;DHT22;62306;52.516;13.290;2023-08-21T01:16:01;22.60;99.90
73955;DHT22;62306;52.516;13.290;2023-08-21T01:18:30;22.70;99.90
73955;DHT22;62306;52.516;13.290;2023-08-21T01:20:58;22.70;99.90
73955;DHT22;62306;52.516;13.290;2023-08-21T01:23:32;22.60;99.90
73955;DHT22;62306;52.516;13.290;2023-08-21T01:25:58;22.50;99.90
73955;DHT22;62306;52.516;13.290;2023-08-21T01:28:25;22.40;99.90
73955;DHT22;62306;52.516;13.290;2023-08-21T01:30:59;22.40;99.90
73955;DHT22;62306;52.516;13.290;2023-08-21T01:33:29;22.40;99.90
73955;DHT22;62306;52.516;13.290;2023-08-21T01:35:58;22.40;99.90
73955;DHT22;62306;52.516;13.290;2023-08-21T01:38:25;22.50;99.90
73955;DHT22;62306;52.516;13.290;2023-08-21T01:40:54;22.60;99.90
73955;DHT22;62306;52.516;13.290;2023-08-21T01:43:21;22.60;99.90
73955;DHT22;62306;52.516;13.290;2023-08-21T01:45:48;22.60;99.90
73955;DHT22;62306;52.516;13.290;2023-08-21T01:48:15;22.70;99.90
73955;DHT22;62306;52.516;13.290;2023-08-21T01:50:42;22.60;99.90
73955;DHT22;62306;52.516;13.290;2023-08-21T01:53:09;22.60;99.90
73955;DHT22;62306;52.516;13.290;2023-08-21T01:55:36;22.70;99.90
73955;DHT22;62306;52.516;13.290;2023-08-21T01:58:04;22.60;99.90
73955;DHT22;62306;52.516;13.290;2023-08-21T02:00:31;22.60;99.90
73955;DHT22;62306;52.516;13.290;2023-08-21T02:02:58;22.60;99.90
73955;DHT22;62306;52.516;13.290;2023-08-21T02:05:24;22.50;99.90
73955;DHT22;62306;52.516;13.290;2023-08-21T02:07:51;22.50;99.90
73955;DHT22;62306;52.516;13.290;2023-08-21T02:10:18;22.50;99.90
73955;DHT22;62306;52.516;13.290;2023-08-21T02:12:45;22.50;99.90
73955;DHT22;62306;52.516;13.290;2023-08-21T02:15:13;22.50;99.90
73955;DHT22;62306;52.516;13.290;2023-08-21T02:17:40;22.40;99.90
73955;DHT22;62306;52.516;13.290;2023-08-21T02:20:10;22.40;99.90
73955;DHT22;62306;52.516;13.290;2023-08-21T02:22:37;22.30;99.90
73955;DHT22;62306;52.516;13.290;2023-08-21T02:25:04;22.30;99.90
73955;DHT22;62306;52.516;13.290;2023-08-21T02:27:31;22.30;99.90
73955;DHT22;62306;52.516;13.290;2023-08-21T02:29:58;22.30;99.90
73955;DHT22;62306;52.516;13.290;2023-08-21T02:32:26;22.30;99.90
73955;DHT22;62306;52.516;13.290;2023-08-21T02:34:53;22.30;99.90
73955;DHT22;62306;52.516;13.290;2023-08-21T02:37:20;22.30;99.90
73955;DHT22;62306;52.516;13.290;2023-08-21T02:39:47;22.30;99.90
73955;DHT22;62306;52.516;13.290;2023-08-21T02:42:13;22.30;99.90
73955;DHT22;62306;52.516;13.290;2023-08-21T02:44:40;22.40;99.90
73955;DHT22;62306;52.516;13.290;2023-08-21T02:47:07;22.50;99.90
73955;DHT22;62306;52.516;13.290;2023-08-21T02:49:35;22.40;99.90
73955;DHT22;62306;52.516;13.290;2023-08-21T02:52:02;22.40;99.90
73955;DHT22;62306;52.516;13.290;2023-08-21T02:54:29;22.40;99.90
73955;DHT22;62306;52.516;13.290;2023-08-21T02:56:56;22.40;99.90
73955;DHT22;62306;52.516;13.290;2023-08-21T02:59:23;22.40;99.90
73955;DHT22;62306;52.516;13.290;2023-08-21T03:01:50;22.40;99.90
73955;DHT22;62306;52.516;13.290;2023-08-21T03:04:16;22.50;99.90
73955;DHT22;62306;52.516;13.290;2023-08-21T03:06:45;22.40;99.90
73955;DHT22;62306;52.516;13.290;2023-08-21T03:09:11;22.40;99.90
73955;DHT22;62306;52.516;13.290;2023-08-21T03:11:38;22.40;99.90
73955;DHT22;62306;52.516;13.290;2023-08-21T03:14:05;22.40;99.90
73955;DHT22;62306;52.516;13.290;2023-08-21T03:16:32;22.50;99.90
73955;DHT22;62306;52.516;13.290;2023-08-21T03:18:59;22.50;99.90
73955;DHT22;62306;52.516;13.290;2023-08-21T03:21:27;22.50;99.90
73955;DHT22;62306;52.516;13.290;2023-08-21T03:23:58;22.40;99.90
73955;DHT22;62306;52.516;13.290;2023-08-21T03:26:25;22.40;99.90
73955;DHT22;62306;52.516;13.290;2023-08-21T03:28:52;22.40;99.90
73955;DHT22;62306;52.516;13.290;2023-08-21T03:31:19;22.30;99.90
73955;DHT22;62306;52.516;13.290;2023-08-21T03:33:46;22.30;99.90
73955;DHT22;62306;52.516;13.290;2023-08-21T03:36:13;22.30;99.90
73955;DHT22;62306;52.516;13.290;2023-08-21T03:38:40;22.30;99.90
73955;DHT22;62306;52.516;13.290;2023-08-21T03:41:08;22.40;99.90
73955;DHT22;62306;52.516;13.290;2023-08-21T03:43:35;22.30;99.90
73955;DHT22;62306;52.516;13.290;2023-08-21T03:46:02;22.20;99.90
73955;DHT22;62306;52.516;13.290;2023-08-21T03:48:28;22.20;99.90
73955;DHT22;62306;52.516;13.290;2023-08-21T03:50:55;22.20;99.90
73955;DHT22;62306;52.516;13.290;2023-08-21T03:53:22;22.10;99.90
73955;DHT22;62306;52.516;13.290;2023-08-21T03:55:50;22.20;99.90
73955;DHT22;62306;52.516;13.290;2023-08-21T03:58:18;22.20;99.90
73955;DHT22;62306;52.516;13.290;2023-08-21T04:00:45;22.20;99.90
73955;DHT22;62306;52.516;13.290;2023-08-21T04:03:12;22.10;99.90
73955;DHT22;62306;52.516;13.290;2023-08-21T04:05:39;22.10;99.90
73955;DHT22;62306;52.516;13.290;2023-08-21T04:08:06;22.20;99.90
73955;DHT22;62306;52.516;13.290;2023-08-21T04:10:33;22.30;99.90
73955;DHT22;62306;52.516;13.290;2023-08-21T04:13:00;22.30;99.90
73955;DHT22;62306;52.516;13.290;2023-08-21T04:15:28;22.50;99.90
73955;DHT22;62306;52.516;13.290;2023-08-21T04:17:55;22.60;99.90
73955;DHT22;62306;52.516;13.290;2023-08-21T04:20:22;22.50;99.90
73955;DHT22;62306;52.516;13.290;2023-08-21T04:22:49;22.50;99.90
73955;DHT22;62306;52.516;13.290;2023-08-21T04:25:16;22.40;99.90
73955;DHT22;62306;52.516;13.290;2023-08-21T04:27:43;22.50;99.90
73955;DHT22;62306;52.516;13.290;2023-08-21T04:30:11;22.50;99.90
73955;DHT22;62306;52.516;13.290;2023-08-21T04:32:39;22.50;99.90
73955;DHT22;62306;52.516;13.290;2023-08-21T04:35:06;22.50;99.90
73955;DHT22;62306;52.516;13.290;2023-08-21T04:37:34;22.50;99.90
73955;DHT22;62306;52.516;13.290;2023-08-21T04:40:01;22.50;99.90
73955;DHT22;62306;52.516;13.290;2023-08-21T04:42:28;22.50;99.90
73955;DHT22;62306;52.516;13.290;2023-08-21T04:44:55;22.50;99.90
73955;DHT22;62306;52.516;13.290;2023-08-21T04:47:23;22.60;99.90
73955;DHT22;62306;52.516;13.290;2023-08-21T04:49:53;22.60;99.90
73955;DHT22;62306;52.516;13.290;2023-08-21T04:52:20;22.70;99.90
73955;DHT22;62306;52.516;13.290;2023-08-21T04:54:48;22.80;99.90
73955;DHT22;62306;52.516;13.290;2023-08-21T04:57:15;22.90;99.90
73955;DHT22;62306;52.516;13.290;2023-08-21T04:59:43;22.90;99.90
73955;DHT22;62306;52.516;13.290;2023-08-21T05:02:10;22.90;99.90
73955;DHT22;62306;52.516;13.290;2023-08-21T05:04:37;22.90;99.90
73955;DHT22;62306;52.516;13.290;2023-08-21T05:07:05;23.00;99.90
73955;DHT22;62306;52.516;13.290;2023-08-21T05:09:33;23.00;99.90
73955;DHT22;62306;52.516;13.290;2023-08-21T05:11:59;23.00;99.90
73955;DHT22;62306;52.516;13.290;2023-08-21T05:14:26;22.90;99.90
73955;DHT22;62306;52.516;13.290;2023-08-21T05:16:53;23.00;99.90
73955;DHT22;62306;52.516;13.290;2023-08-21T05:19:20;23.10;99.90
73955;DHT22;62306;52.516;13.290;2023-08-21T05:21:46;23.20;99.90
73955;DHT22;62306;52.516;13.290;2023-08-21T05:24:15;23.30;99.90
73955;DHT22;62306;52.516;13.290;2023-08-21T05:26:41;23.50;99.90
73955;DHT22;62306;52.516;13.290;2023-08-21T05:29:08;23.60;99.90
73955;DHT22;62306;52.516;13.290;2023-08-21T05:31:35;23.70;99.90
73955;DHT22;62306;52.516;13.290;2023-08-21T05:34:02;23.80;99.90
73955;DHT22;62306;52.516;13.290;2023-08-21T05:36:28;23.90;99.90
73955;DHT22;62306;52.516;13.290;2023-08-21T05:38:56;24.40;99.90
73955;DHT22;62306;52.516;13.290;2023-08-21T05:41:25;25.30;99.90
73955;DHT22;62306;52.516;13.290;2023-08-21T05:43:51;26.10;99.90
73955;DHT22;62306;52.516;13.290;2023-08-21T05:46:18;26.80;99.90
73955;DHT22;62306;52.516;13.290;2023-08-21T05:48:45;27.00;99.90
73955;DHT22;62306;52.516;13.290;2023-08-21T05:51:12;27.00;99.90
73955;DHT22;62306;52.516;13.290;2023-08-21T05:53:39;26.70;99.90
73955;DHT22;62306;52.516;13.290;2023-08-21T05:56:06;26.40;99.90
73955;DHT22;62306;52.516;13.290;2023-08-21T05:58:34;25.90;99.90
73955;DHT22;62306;52.516;13.290;2023-08-21T06:01:01;25.70;99.90
73955;DHT22;62306;52.516;13.290;2023-08-21T06:03:28;25.50;99.90
73955;DHT22;62306;52.516;13.290;2023-08-21T06:05:54;25.40;99.90
73955;DHT22;62306;52.516;13.290;2023-08-21T06:08:21;25.70;99.90
73955;DHT22;62306;52.516;13.290;2023-08-21T06:10:51;25.80;99.90
73955;DHT22;62306;52.516;13.290;2023-08-21T06:13:18;26.10;99.90
73955;DHT22;62306;52.516;13.290;2023-08-21T06:15:46;26.00;99.90
73955;DHT22;62306;52.516;13.290;2023-08-21T06:18:13;26.10;99.90
73955;DHT22;62306;52.516;13.290;2023-08-21T06:20:42;26.10;99.90
73955;DHT22;62306;52.516;13.290;2023-08-21T06:23:08;26.10;99.90
73955;DHT22;62306;52.516;13.290;2023-08-21T06:25:35;25.90;99.90
73955;DHT22;62306;52.516;13.290;2023-08-21T06:28:03;25.80;99.90
73955;DHT22;62306;52.516;13.290;2023-08-21T06:30:30;25.80;99.90
73955;DHT22;62306;52.516;13.290;2023-08-21T06:32:58;25.80;99.90
73955;DHT22;62306;52.516;13.290;2023-08-21T06:35:25;26.10;99.90
73955;DHT22;62306;52.516;13.290;2023-08-21T06:37:52;26.40;99.90
73955;DHT22;62306;52.516;13.290;2023-08-21T06:40:19;26.90;99.90
73955;DHT22;62306;52.516;13.290;2023-08-21T06:42:46;27.40;99.90
73955;DHT22;62306;52.516;13.290;2023-08-21T06:45:14;27.80;99.90
73955;DHT22;62306;52.516;13.290;2023-08-21T06:47:41;28.10;99.40
73955;DHT22;62306;52.516;13.290;2023-08-21T06:50:10;28.60;98.10
73955;DHT22;62306;52.516;13.290;2023-08-21T06:52:37;28.90;97.00
73955;DHT22;62306;52.516;13.290;2023-08-21T06:55:04;29.00;95.00
73955;DHT22;62306;52.516;13.290;2023-08-21T06:57:31;28.60;95.30
73955;DHT22;62306;52.516;13.290;2023-08-21T06:59:58;28.60;95.70
73955;DHT22;62306;52.516;13.290;2023-08-21T07:02:25;28.50;95.20
73955;DHT22;62306;52.516;13.290;2023-08-21T07:04:52;28.60;95.20
73955;DHT22;62306;52.516;13.290;2023-08-21T07:07:20;28.80;94.70
73955;DHT22;62306;52.516;13.290;2023-08-21T07:09:46;29.10;94.30
73955;DHT22;62306;52.516;13.290;2023-08-21T07:12:13;29.50;93.20
73955;DHT22;62306;52.516;13.290;2023-08-21T07:14:40;29.80;92.10
73955;DHT22;62306;52.516;13.290;2023-08-21T07:17:07;29.80;91.30
73955;DHT22;62306;52.516;13.290;2023-08-21T07:19:34;29.90;91.20
73955;DHT22;62306;52.516;13.290;2023-08-21T07:22:00;29.80;90.30
73955;DHT22;62306;52.516;13.290;2023-08-21T07:24:29;29.30;90.60
73955;DHT22;62306;52.516;13.290;2023-08-21T07:26:55;29.00;91.20
73955;DHT22;62306;52.516;13.290;2023-08-21T07:29:23;28.90;91.40
73955;DHT22;62306;52.516;13.290;2023-08-21T07:31:50;28.90;91.10
73955;DHT22;62306;52.516;13.290;2023-08-21T07:34:16;28.60;91.50
73955;DHT22;62306;52.516;13.290;2023-08-21T07:36:43;28.60;91.60
73955;DHT22;62306;52.516;13.290;2023-08-21T07:39:10;28.50;90.90
73955;DHT22;62306;52.516;13.290;2023-08-21T07:41:38;28.40;90.00
73955;DHT22;62306;52.516;13.290;2023-08-21T07:44:05;28.50;90.00
73955;DHT22;62306;52.516;13.290;2023-08-21T07:46:32;28.80;88.90
73955;DHT22;62306;52.516;13.290;2023-08-21T07:48:59;28.80;87.30
73955;DHT22;62306;52.516;13.290;2023-08-21T07:51:26;28.70;87.30
73955;DHT22;62306;52.516;13.290;2023-08-21T07:53:53;28.70;87.10
73955;DHT22;62306;52.516;13.290;2023-08-21T07:56:20;28.50;87.90
73955;DHT22;62306;52.516;13.290;2023-08-21T07:58:48;28.70;88.40
73955;DHT22;62306;52.516;13.290;2023-08-21T08:01:14;28.80;87.00
73955;DHT22;62306;52.516;13.290;2023-08-21T08:03:41;29.00;84.70
73955;DHT22;62306;52.516;13.290;2023-08-21T08:06:08;28.80;83.80
73955;DHT22;62306;52.516;13.290;2023-08-21T08:08:35;28.70;82.60
73955;DHT22;62306;52.516;13.290;2023-08-21T08:11:02;28.50;82.40
73955;DHT22;62306;52.516;13.290;2023-08-21T08:13:30;28.30;82.30
73955;DHT22;62306;52.516;13.290;2023-08-21T08:15:58;27.90;81.50
73955;DHT22;62306;52.516;13.290;2023-08-21T08:18:25;27.70;81.80
73955;DHT22;62306;52.516;13.290;2023-08-21T08:20:51;27.60;81.80
73955;DHT22;62306;52.516;13.290;2023-08-21T08:23:19;27.70;82.10
73955;DHT22;62306;52.516;13.290;2023-08-21T08:25:47;27.80;82.30
73955;DHT22;62306;52.516;13.290;2023-08-21T08:28:14;27.90;82.70
73955;DHT22;62306;52.516;13.290;2023-08-21T08:30:41;28.00;82.20
73955;DHT22;62306;52.516;13.290;2023-08-21T08:33:09;28.00;79.70
73955;DHT22;62306;52.516;13.290;2023-08-21T08:35:36;28.20;79.40
73955;DHT22;62306;52.516;13.290;2023-08-21T08:38:03;28.30;77.80
73955;DHT22;62306;52.516;13.290;2023-08-21T08:40:30;28.50;76.50
73955;DHT22;62306;52.516;13.290;2023-08-21T08:42:57;28.50;70.30
73955;DHT22;62306;52.516;13.290;2023-08-21T08:45:29;28.40;71.80
73955;DHT22;62306;52.516;13.290;2023-08-21T08:47:59;28.30;71.40
73955;DHT22;62306;52.516;13.290;2023-08-21T08:50:28;28.50;71.00
73955;DHT22;62306;52.516;13.290;2023-08-21T08:52:57;28.80;69.30
73955;DHT22;62306;52.516;13.290;2023-08-21T08:55:24;29.00;63.60
73955;DHT22;62306;52.516;13.290;2023-08-21T08:57:51;29.20;64.00
73955;DHT22;62306;52.516;13.290;2023-08-21T09:00:19;29.30;62.80
73955;DHT22;62306;52.516;13.290;2023-08-21T09:02:47;29.30;62.00
73955;DHT22;62306;52.516;13.290;2023-08-21T09:05:14;29.30;61.60
73955;DHT22;62306;52.516;13.290;2023-08-21T09:07:43;29.30;60.60
73955;DHT22;62306;52.516;13.290;2023-08-21T09:10:13;29.10;60.90
73955;DHT22;62306;52.516;13.290;2023-08-21T09:12:41;29.00;61.40
73955;DHT22;62306;52.516;13.290;2023-08-21T09:15:08;29.10;61.70
73955;DHT22;62306;52.516;13.290;2023-08-21T09:17:35;29.10;61.70
73955;DHT22;62306;52.516;13.290;2023-08-21T09:20:06;29.10;62.10
73955;DHT22;62306;52.516;13.290;2023-08-21T09:22:33;29.40;62.00
73955;DHT22;62306;52.516;13.290;2023-08-21T09:25:03;29.90;61.80
73955;DHT22;62306;52.516;13.290;2023-08-21T09:27:32;30.20;60.30
73955;DHT22;62306;52.516;13.290;2023-08-21T09:29:59;30.40;60.60
73955;DHT22;62306;52.516;13.290;2023-08-21T09:32:27;30.50;59.70
73955;DHT22;62306;52.516;13.290;2023-08-21T09:34:54;30.50;59.50
73955;DHT22;62306;52.516;13.290;2023-08-21T09:37:20;30.30;58.20
73955;DHT22;62306;52.516;13.290;2023-08-21T09:39:47;30.10;59.50
73955;DHT22;62306;52.516;13.290;2023-08-21T09:42:18;30.10;59.80
73955;DHT22;62306;52.516;13.290;2023-08-21T09:44:45;29.90;60.30
73955;DHT22;62306;52.516;13.290;2023-08-21T09:47:15;29.70;61.30
73955;DHT22;62306;52.516;13.290;2023-08-21T09:49:42;29.70;60.60
73955;DHT22;62306;52.516;13.290;2023-08-21T09:52:09;29.70;61.10
73955;DHT22;62306;52.516;13.290;2023-08-21T09:54:38;29.80;61.10
73955;DHT22;62306;52.516;13.290;2023-08-21T09:57:05;29.80;61.40
73955;DHT22;62306;52.516;13.290;2023-08-21T09:59:33;29.60;62.50
73955;DHT22;62306;52.516;13.290;2023-08-21T10:02:00;29.60;61.30
73955;DHT22;62306;52.516;13.290;2023-08-21T10:04:28;29.40;62.50
73955;DHT22;62306;52.516;13.290;2023-08-21T10:06:56;29.50;62.10
73955;DHT22;62306;52.516;13.290;2023-08-21T10:09:24;29.40;59.80
73955;DHT22;62306;52.516;13.290;2023-08-21T10:11:52;29.40;60.50
73955;DHT22;62306;52.516;13.290;2023-08-21T10:14:20;29.40;60.60
73955;DHT22;62306;52.516;13.290;2023-08-21T10:16:49;29.50;60.00
73955;DHT22;62306;52.516;13.290;2023-08-21T10:19:17;29.40;59.10
73955;DHT22;62306;52.516;13.290;2023-08-21T10:21:47;29.40;60.20
73955;DHT22;62306;52.516;13.290;2023-08-21T10:24:26;29.50;59.00
73955;DHT22;62306;52.516;13.290;2023-08-21T10:26:58;29.40;59.60
73955;DHT22;62306;52.516;13.290;2023-08-21T10:29:25;29.50;59.60
73955;DHT22;62306;52.516;13.290;2023-08-21T10:32:01;29.50;59.40
73955;DHT22;62306;52.516;13.290;2023-08-21T10:34:33;29.70;58.40
73955;DHT22;62306;52.516;13.290;2023-08-21T10:37:09;29.60;58.60
73955;DHT22;62306;52.516;13.290;2023-08-21T10:39:38;29.60;59.20
73955;DHT22;62306;52.516;13.290;2023-08-21T10:42:07;29.50;58.50
73955;DHT22;62306;52.516;13.290;2023-08-21T10:44:37;29.40;58.50
73955;DHT22;62306;52.516;13.290;2023-08-21T10:47:15;29.40;59.30
73955;DHT22;62306;52.516;13.290;2023-08-21T10:49:43;29.40;59.80
73955;DHT22;62306;52.516;13.290;2023-08-21T10:52:10;29.60;60.00
73955;DHT22;62306;52.516;13.290;2023-08-21T10:54:47;29.90;59.90
73955;DHT22;62306;52.516;13.290;2023-08-21T10:57:14;30.00;59.00
73955;DHT22;62306;52.516;13.290;2023-08-21T10:59:57;29.90;58.60
73955;DHT22;62306;52.516;13.290;2023-08-21T11:02:27;29.70;58.30
73955;DHT22;62306;52.516;13.290;2023-08-21T11:04:55;29.70;58.90
73955;DHT22;62306;52.516;13.290;2023-08-21T11:07:22;29.70;59.00
73955;DHT22;62306;52.516;13.290;2023-08-21T11:09:49;29.90;59.00
73955;DHT22;62306;52.516;13.290;2023-08-21T11:12:17;30.00;58.20
73955;DHT22;62306;52.516;13.290;2023-08-21T11:14:45;29.90;58.50
73955;DHT22;62306;52.516;13.290;2023-08-21T11:17:12;29.70;59.10
73955;DHT22;62306;52.516;13.290;2023-08-21T11:19:41;29.50;60.00
73955;DHT22;62306;52.516;13.290;2023-08-21T11:22:08;29.50;59.40
73955;DHT22;62306;52.516;13.290;2023-08-21T11:24:43;29.40;58.40
73955;DHT22;62306;52.516;13.290;2023-08-21T11:27:12;29.40;57.00
73955;DHT22;62306;52.516;13.290;2023-08-21T11:29:40;29.40;56.60
73955;DHT22;62306;52.516;13.290;2023-08-21T11:32:13;29.50;56.40
73955;DHT22;62306;52.516;13.290;2023-08-21T11:34:42;29.50;57.30
73955;DHT22;62306;52.516;13.290;2023-08-21T11:37:13;29.70;58.10
73955;DHT22;62306;52.516;13.290;2023-08-21T11:39:44;29.90;55.90
73955;DHT22;62306;52.516;13.290;2023-08-21T11:42:12;30.10;56.20
73955;DHT22;62306;52.516;13.290;2023-08-21T11:44:43;30.20;55.50
73955;DHT22;62306;52.516;13.290;2023-08-21T11:47:11;30.20;55.70
73955;DHT22;62306;52.516;13.290;2023-08-21T11:49:39;30.10;55.60
73955;DHT22;62306;52.516;13.290;2023-08-21T11:52:10;30.20;55.90
73955;DHT22;62306;52.516;13.290;2023-08-21T11:54:38;30.20;54.60
73955;DHT22;62306;52.516;13.290;2023-08-21T11:57:07;30.10;55.70
73955;DHT22;62306;52.516;13.290;2023-08-21T11:59:35;30.00;56.00
73955;DHT22;62306;52.516;13.290;2023-08-21T12:02:09;30.10;55.90
73955;DHT22;62306;52.516;13.290;2023-08-21T12:04:36;29.90;56.00
73955;DHT22;62306;52.516;13.290;2023-08-21T12:07:03;29.80;56.40
73955;DHT22;62306;52.516;13.290;2023-08-21T12:09:31;29.70;56.60
73955;DHT22;62306;52.516;13.290;2023-08-21T12:11:58;29.70;57.20
73955;DHT22;62306;52.516;13.290;2023-08-21T12:14:28;29.70;56.30
73955;DHT22;62306;52.516;13.290;2023-08-21T12:16:55;29.80;57.20
73955;DHT22;62306;52.516;13.290;2023-08-21T12:19:22;30.00;57.20
73955;DHT22;62306;52.516;13.290;2023-08-21T12:21:50;30.00;56.70
73955;DHT22;62306;52.516;13.290;2023-08-21T12:24:17;29.80;57.10
73955;DHT22;62306;52.516;13.290;2023-08-21T12:26:45;29.60;56.10
73955;DHT22;62306;52.516;13.290;2023-08-21T12:29:12;29.20;56.50
73955;DHT22;62306;52.516;13.290;2023-08-21T12:31:39;29.00;57.10
73955;DHT22;62306;52.516;13.290;2023-08-21T12:34:06;28.80;57.30
73955;DHT22;62306;52.516;13.290;2023-08-21T12:36:34;28.70;58.30
73955;DHT22;62306;52.516;13.290;2023-08-21T12:39:02;28.70;57.80
73955;DHT22;62306;52.516;13.290;2023-08-21T12:41:29;29.00;58.00
73955;DHT22;62306;52.516;13.290;2023-08-21T12:43:58;29.40;57.00
73955;DHT22;62306;52.516;13.290;2023-08-21T12:46:24;29.50;57.60
73955;DHT22;62306;52.516;13.290;2023-08-21T12:48:53;29.90;57.40
73955;DHT22;62306;52.516;13.290;2023-08-21T12:51:19;30.20;56.90
73955;DHT22;62306;52.516;13.290;2023-08-21T12:53:46;30.30;55.70
73955;DHT22;62306;52.516;13.290;2023-08-21T12:56:13;30.20;54.90
73955;DHT22;62306;52.516;13.290;2023-08-21T12:58:40;30.00;54.30
73955;DHT22;62306;52.516;13.290;2023-08-21T13:01:08;29.90;54.80
73955;DHT22;62306;52.516;13.290;2023-08-21T13:03:35;29.80;53.70
73955;DHT22;62306;52.516;13.290;2023-08-21T13:06:02;29.70;54.30
73955;DHT22;62306;52.516;13.290;2023-08-21T13:08:29;29.70;54.10
73955;DHT22;62306;52.516;13.290;2023-08-21T13:10:56;29.90;53.40
73955;DHT22;62306;52.516;13.290;2023-08-21T13:13:23;29.90;53.90
73955;DHT22;62306;52.516;13.290;2023-08-21T13:15:50;29.70;54.60
73955;DHT22;62306;52.516;13.290;2023-08-21T13:18:18;29.40;54.80
73955;DHT22;62306;52.516;13.290;2023-08-21T13:20:45;29.10;56.20
73955;DHT22;62306;52.516;13.290;2023-08-21T13:23:12;29.20;55.80
73955;DHT22;62306;52.516;13.290;2023-08-21T13:25:39;29.30;55.20
73955;DHT22;62306;52.516;13.290;2023-08-21T13:28:06;29.20;55.80
73955;DHT22;62306;52.516;13.290;2023-08-21T13:30:32;29.20;54.30
73955;DHT22;62306;52.516;13.290;2023-08-21T13:32:59;29.40;54.70
73955;DHT22;62306;52.516;13.290;2023-08-21T13:35:27;29.70;54.00
73955;DHT22;62306;52.516;13.290;2023-08-21T13:37:54;29.90;53.00
73955;DHT22;62306;52.516;13.290;2023-08-21T13:40:21;30.20;52.30
73955;DHT22;62306;52.516;13.290;2023-08-21T13:42:48;30.20;51.30
73955;DHT22;62306;52.516;13.290;2023-08-21T13:45:17;30.10;49.90
73955;DHT22;62306;52.516;13.290;2023-08-21T13:47:45;29.90;50.20
73955;DHT22;62306;52.516;13.290;2023-08-21T13:50:13;29.90;50.40
73955;DHT22;62306;52.516;13.290;2023-08-21T13:52:42;29.70;49.70
73955;DHT22;62306;52.516;13.290;2023-08-21T13:55:10;29.30;50.90
73955;DHT22;62306;52.516;13.290;2023-08-21T13:57:37;29.10;51.60
73955;DHT22;62306;52.516;13.290;2023-08-21T14:00:06;29.10;52.10
73955;DHT22;62306;52.516;13.290;2023-08-21T14:02:37;29.00;51.50
73955;DHT22;62306;52.516;13.290;2023-08-21T14:05:05;29.10;52.80
73955;DHT22;62306;52.516;13.290;2023-08-21T14:07:33;29.10;52.10
73955;DHT22;62306;52.516;13.290;2023-08-21T14:10:02;29.30;52.20
73955;DHT22;62306;52.516;13.290;2023-08-21T14:12:31;29.40;51.30
73955;DHT22;62306;52.516;13.290;2023-08-21T14:14:58;29.40;50.40
73955;DHT22;62306;52.516;13.290;2023-08-21T14:17:25;29.40;48.90
73955;DHT22;62306;52.516;13.290;2023-08-21T14:19:52;29.40;49.10
73955;DHT22;62306;52.516;13.290;2023-08-21T14:22:19;29.40;48.60
73955;DHT22;62306;52.516;13.290;2023-08-21T14:24:45;29.40;50.40
73955;DHT22;62306;52.516;13.290;2023-08-21T14:27:14;29.40;51.00
73955;DHT22;62306;52.516;13.290;2023-08-21T14:29:42;29.50;50.70
73955;DHT22;62306;52.516;13.290;2023-08-21T14:32:09;29.60;50.90
73955;DHT22;62306;52.516;13.290;2023-08-21T14:34:35;29.50;50.00
73955;DHT22;62306;52.516;13.290;2023-08-21T14:37:02;29.20;51.70
73955;DHT22;62306;52.516;13.290;2023-08-21T14:39:30;29.10;51.50
73955;DHT22;62306;52.516;13.290;2023-08-21T14:41:57;29.20;52.10
73955;DHT22;62306;52.516;13.290;2023-08-21T14:44:25;29.30;51.10
73955;DHT22;62306;52.516;13.290;2023-08-21T14:46:53;29.40;52.00
73955;DHT22;62306;52.516;13.290;2023-08-21T14:49:21;29.50;51.50
73955;DHT22;62306;52.516;13.290;2023-08-21T14:51:47;29.50;51.30
73955;DHT22;62306;52.516;13.290;2023-08-21T14:54:15;29.40;51.20
73955;DHT22;62306;52.516;13.290;2023-08-21T14:56:42;29.20;51.60
73955;DHT22;62306;52.516;13.290;2023-08-21T14:59:08;29.00;51.70
73955;DHT22;62306;52.516;13.290;2023-08-21T15:01:38;28.50;52.80
73955;DHT22;62306;52.516;13.290;2023-08-21T15:04:05;28.20;53.60
73955;DHT22;62306;52.516;13.290;2023-08-21T15:06:32;28.00;54.10
73955;DHT22;62306;52.516;13.290;2023-08-21T15:08:59;27.80;55.10
73955;DHT22;62306;52.516;13.290;2023-08-21T15:11:26;27.70;54.50
73955;DHT22;62306;52.516;13.290;2023-08-21T15:13:53;27.50;55.50
73955;DHT22;62306;52.516;13.290;2023-08-21T15:16:20;27.50;56.00
73955;DHT22;62306;52.516;13.290;2023-08-21T15:18:49;27.60;55.90